Tuesday, September 02, 2014
04:20 UTC
  |  Log In   |  Register Free
Airport Search:

Southwest Georgia Regional Airport
(KABY)

FAA data valid effective July 24, 2014 until September 18, 2014 (unless otherwise noted).

 
 
 
 
 
 
 
 
 
 
 
 
 
 

Current Aviation Weather for Southwest Georgia Regional Airport (KABY)

The most recent METAR observation for KABY was updated at: 0153 UTC
METAR Summary (Translated METAR)
KABY
020153Z 24005KT 10SM FEW070 28/21 A3010 RMK AO2 SLP190 T02780211 PNO $
KMGR
(33.7 nm SE from KABY)
020215Z AUTO 00000KT 10SM VCTS CLR 28/23 A3011 RMK AO2 LTG DSNT NE THRU SE
TAF Summary (Translated TAF)
KABY
011740Z 0118/0218 18005KT P6SM FEW050 FM020300 00000KT P6SM SKC FM021500 33005KT P6SM FEW040
  Airport Weather Conditions for KABY

 Current Weather at ABY
80° F
Fair
Southwest winds at 6.9 mph
ABY NOAA Radar

Pressure: 30.11 in
Humidity: 76%
Wind: Southwest at 6.9 MPH (6 KT)
Dew Point: 72.0°F
Visibility: 10.00 mi


Airport Weather Forecast for KABY

Translated METAR and TAF for KABY
Translated METAR for KABY (0414 UTC 02 September 2014)
found at http://aviationweather.gov/adds/metars/
 
METAR text: KABY 020353Z 24006KT 10SM CLR 27/22 A3011 RMK AO2 SLP194 T02670222 PNO $
Conditions at: KABY (ALBANY , GA, US) observed 0353 UTC 02 September 2014
Temperature: 26.7°C (80°F)
Dewpoint: 22.2°C (72°F) [RH = 76%]
Pressure (altimeter): 30.11 inches Hg (1019.7 mb)
[Sea-level pressure: 1019.4 mb]
Winds: from the WSW (240 degrees) at 7 MPH (6 knots; 3.1 m/s)
Visibility: 10 or more miles (16+ km)
Ceiling: at least 12,000 feet AGL
Clouds: sky clear below 12,000 feet AGL
Weather:
SOME DATA ABOVE MAY BE INACCURATE!!!
"$" is an indication the sensor requires maintenance
Translated TAF for KABY
Forecast for: KABY (ALBANY , GA, US)
TAF Text: KABY 012334Z 0200/0224 27004KT P6SM VCTS SCT060CB SCT250
Forecast period: 0000 to 0300 UTC 02 September 2014
Forecast type: FROM: standard forecast or significant change
Winds: from the W (270 degrees) at 5 MPH (4 knots; 2.1 m/s)
Visibility: 6 or more miles (10+ km)
Clouds: scattered clouds at 6000 feet AGL
scattered clouds at 25000 feet AGL
Weather: VCTS  (thunderstorm in vicinity)
TAF Text: FM020300 00000KT P6SM SCT250
Forecast period: 0300 to 1500 UTC 02 September 2014
Forecast type: FROM: standard forecast or significant change
Winds: calm
Visibility: 6 or more miles (10+ km)
Clouds: scattered clouds at 25000 feet AGL
Weather: no significant weather forecast for this period
TAF Text: FM021500 30005KT P6SM FEW040
Forecast period: 1500 to 1800 UTC 02 September 2014
Forecast type: FROM: standard forecast or significant change
Winds: from the WNW (300 degrees) at 6 MPH (5 knots; 2.6 m/s)
Visibility: 6 or more miles (10+ km)
Clouds: few clouds at 4000 feet AGL
Weather: no significant weather forecast for this period
TAF Text: FM021800 25006KT P6SM VCTS SCT050CB
Forecast period: 1800 UTC 02 September 2014 to 0000 UTC 03 September 2014
Forecast type: FROM: standard forecast or significant change
Winds: from the WSW (250 degrees) at 7 MPH (6 knots; 3.1 m/s)
Visibility: 6 or more miles (10+ km)
Clouds: scattered clouds at 5000 feet AGL
Weather: VCTS  (thunderstorm in vicinity)

Find All Airport Services Find A Hotel Find A Rental Car Find A Golf Course Find A Restaurant $100 Hamburger



FBO's on the Field
FBO Company Facility Photos Services Transportation Aviation Fuel Prices: Prices include tax
Catering Weather Repair Courtesy Rental Type 100LL JetA JetA+ MOGAS 8087
 
Eagles of America, Inc. - ABY

This FBO has not yet been rated
FS:AirBP
Last Updated: Jul-23
Login to update fuel prices
SS:
Contact Eagles of America, Inc. - ABYMore FBO Information
 
Add another FBO Facility Photos Catering Weather Repair Courtesy Rental Type 100LL JetA JetA+ MOGAS 8087
Services Transportation Aviation Fuel Prices: Prices include tax


GlobalAir.com Airport Resource Center model-print
model-print
model-print
model-print